sensor_id;sensor_type;location;lat;lon;timestamp;P1;durP1;ratioP1;P2;durP2;ratioP2
13368;SDS011;6753;52.520;13.450;2023-05-29T00:00:00;624.97;;;496.52;;
13368;SDS011;6753;52.520;13.450;2023-05-29T00:00:11;624.85;;;494.17;;
13368;SDS011;6753;52.520;13.450;2023-05-29T00:00:23;621.70;;;493.92;;
13368;SDS011;6753;52.520;13.450;2023-05-29T00:00:34;628.50;;;502.85;;
13368;SDS011;6753;52.520;13.450;2023-05-29T00:00:44;628.33;;;502.33;;
13368;SDS011;6753;52.520;13.450;2023-05-29T00:00:55;628.80;;;502.85;;
13368;SDS011;6753;52.520;13.450;2023-05-29T00:01:07;629.20;;;503.30;;
13368;SDS011;6753;52.520;13.450;2023-05-29T00:01:19;623.80;;;498.42;;
13368;SDS011;6753;52.520;13.450;2023-05-29T00:01:31;624.40;;;498.95;;
13368;SDS011;6753;52.520;13.450;2023-05-29T00:01:41;631.45;;;508.35;;
13368;SDS011;6753;52.520;13.450;2023-05-29T00:01:52;636.13;;;512.67;;
13368;SDS011;6753;52.520;13.450;2023-05-29T00:02:03;633.30;;;508.87;;
13368;SDS011;6753;52.520;13.450;2023-05-29T00:02:14;638.20;;;514.05;;
13368;SDS011;6753;52.520;13.450;2023-05-29T00:02:25;639.72;;;513.78;;
13368;SDS011;6753;52.520;13.450;2023-05-29T00:02:35;637.22;;;509.75;;
13368;SDS011;6753;52.520;13.450;2023-05-29T00:02:46;627.03;;;499.57;;
13368;SDS011;6753;52.520;13.450;2023-05-29T00:02:58;628.60;;;502.27;;
13368;SDS011;6753;52.520;13.450;2023-05-29T00:03:09;631.05;;;505.83;;
13368;SDS011;6753;52.520;13.450;2023-05-29T00:03:19;634.63;;;510.63;;
13368;SDS011;6753;52.520;13.450;2023-05-29T00:03:30;634.13;;;513.80;;
13368;SDS011;6753;52.520;13.450;2023-05-29T00:03:43;640.20;;;518.70;;
13368;SDS011;6753;52.520;13.450;2023-05-29T00:03:53;637.70;;;515.08;;
13368;SDS011;6753;52.520;13.450;2023-05-29T00:04:04;631.30;;;508.17;;
13368;SDS011;6753;52.520;13.450;2023-05-29T00:04:15;625.20;;;500.45;;
13368;SDS011;6753;52.520;13.450;2023-05-29T00:04:27;614.67;;;487.42;;
13368;SDS011;6753;52.520;13.450;2023-05-29T00:04:37;605.67;;;479.52;;
13368;SDS011;6753;52.520;13.450;2023-05-29T00:04:48;598.33;;;470.80;;
13368;SDS011;6753;52.520;13.450;2023-05-29T00:05:00;595.72;;;466.85;;
13368;SDS011;6753;52.520;13.450;2023-05-29T00:05:13;596.17;;;468.13;;
13368;SDS011;6753;52.520;13.450;2023-05-29T00:05:24;599.10;;;472.77;;
13368;SDS011;6753;52.520;13.450;2023-05-29T00:05:38;598.30;;;470.88;;
13368;SDS011;6753;52.520;13.450;2023-05-29T00:05:49;604.58;;;475.95;;
13368;SDS011;6753;52.520;13.450;2023-05-29T00:06:01;608.33;;;481.25;;
13368;SDS011;6753;52.520;13.450;2023-05-29T00:06:13;604.03;;;477.08;;
13368;SDS011;6753;52.520;13.450;2023-05-29T00:06:23;596.20;;;465.57;;
13368;SDS011;6753;52.520;13.450;2023-05-29T00:06:34;590.30;;;459.10;;
13368;SDS011;6753;52.520;13.450;2023-05-29T00:06:46;584.20;;;453.13;;
13368;SDS011;6753;52.520;13.450;2023-05-29T00:06:56;575.00;;;442.17;;
13368;SDS011;6753;52.520;13.450;2023-05-29T00:07:07;569.65;;;435.83;;
13368;SDS011;6753;52.520;13.450;2023-05-29T00:07:19;574.50;;;441.55;;
13368;SDS011;6753;52.520;13.450;2023-05-29T00:07:30;582.85;;;450.70;;
13368;SDS011;6753;52.520;13.450;2023-05-29T00:07:41;589.27;;;457.73;;
13368;SDS011;6753;52.520;13.450;2023-05-29T00:07:51;588.70;;;457.77;;
13368;SDS011;6753;52.520;13.450;2023-05-29T00:08:02;585.95;;;453.90;;
13368;SDS011;6753;52.520;13.450;2023-05-29T00:08:13;576.30;;;441.90;;
13368;SDS011;6753;52.520;13.450;2023-05-29T00:08:24;564.03;;;429.37;;
13368;SDS011;6753;52.520;13.450;2023-05-29T00:08:35;558.80;;;422.70;;
13368;SDS011;6753;52.520;13.450;2023-05-29T00:08:46;555.63;;;418.25;;
13368;SDS011;6753;52.520;13.450;2023-05-29T00:08:57;566.50;;;430.80;;
13368;SDS011;6753;52.520;13.450;2023-05-29T00:09:08;574.97;;;440.10;;
13368;SDS011;6753;52.520;13.450;2023-05-29T00:09:19;586.13;;;451.75;;
13368;SDS011;6753;52.520;13.450;2023-05-29T00:09:30;586.70;;;452.57;;
13368;SDS011;6753;52.520;13.450;2023-05-29T00:09:41;578.22;;;443.05;;
13368;SDS011;6753;52.520;13.450;2023-05-29T00:09:51;568.90;;;432.40;;
13368;SDS011;6753;52.520;13.450;2023-05-29T00:10:02;578.10;;;444.58;;
13368;SDS011;6753;52.520;13.450;2023-05-29T00:10:14;590.53;;;458.55;;
13368;SDS011;6753;52.520;13.450;2023-05-29T00:10:25;597.00;;;466.00;;
13368;SDS011;6753;52.520;13.450;2023-05-29T00:10:36;616.65;;;489.13;;
13368;SDS011;6753;52.520;13.450;2023-05-29T00:10:47;636.72;;;513.38;;
13368;SDS011;6753;52.520;13.450;2023-05-29T00:10:58;652.20;;;530.10;;
13368;SDS011;6753;52.520;13.450;2023-05-29T00:11:08;661.47;;;534.67;;
13368;SDS011;6753;52.520;13.450;2023-05-29T00:11:19;660.85;;;535.75;;
13368;SDS011;6753;52.520;13.450;2023-05-29T00:11:30;654.20;;;530.40;;
13368;SDS011;6753;52.520;13.450;2023-05-29T00:11:41;636.30;;;508.70;;
13368;SDS011;6753;52.520;13.450;2023-05-29T00:11:53;608.13;;;476.35;;
13368;SDS011;6753;52.520;13.450;2023-05-29T00:12:04;583.70;;;449.95;;
13368;SDS011;6753;52.520;13.450;2023-05-29T00:12:15;566.95;;;433.73;;
13368;SDS011;6753;52.520;13.450;2023-05-29T00:12:26;567.70;;;431.10;;
13368;SDS011;6753;52.520;13.450;2023-05-29T00:12:37;563.90;;;427.70;;
13368;SDS011;6753;52.520;13.450;2023-05-29T00:12:48;546.65;;;406.42;;
13368;SDS011;6753;52.520;13.450;2023-05-29T00:12:59;545.47;;;404.30;;
13368;SDS011;6753;52.520;13.450;2023-05-29T00:13:11;541.55;;;400.75;;
13368;SDS011;6753;52.520;13.450;2023-05-29T00:13:22;563.67;;;425.52;;
13368;SDS011;6753;52.520;13.450;2023-05-29T00:13:33;573.53;;;438.88;;
13368;SDS011;6753;52.520;13.450;2023-05-29T00:13:43;586.10;;;454.00;;
13368;SDS011;6753;52.520;13.450;2023-05-29T00:13:54;568.40;;;429.85;;
13368;SDS011;6753;52.520;13.450;2023-05-29T00:14:06;588.47;;;453.33;;
13368;SDS011;6753;52.520;13.450;2023-05-29T00:14:17;597.38;;;463.45;;
13368;SDS011;6753;52.520;13.450;2023-05-29T00:14:29;585.30;;;448.23;;
13368;SDS011;6753;52.520;13.450;2023-05-29T00:14:41;577.80;;;442.48;;
13368;SDS011;6753;52.520;13.450;2023-05-29T00:14:51;579.07;;;445.10;;
13368;SDS011;6753;52.520;13.450;2023-05-29T00:15:02;570.17;;;435.17;;
13368;SDS011;6753;52.520;13.450;2023-05-29T00:15:14;556.33;;;420.20;;
13368;SDS011;6753;52.520;13.450;2023-05-29T00:15:25;558.13;;;422.33;;
13368;SDS011;6753;52.520;13.450;2023-05-29T00:15:35;554.83;;;418.90;;
13368;SDS011;6753;52.520;13.450;2023-05-29T00:15:46;555.30;;;418.25;;
13368;SDS011;6753;52.520;13.450;2023-05-29T00:15:57;547.22;;;410.08;;
13368;SDS011;6753;52.520;13.450;2023-05-29T00:16:12;548.00;;;410.80;;
13368;SDS011;6753;52.520;13.450;2023-05-29T00:16:22;549.33;;;413.20;;
13368;SDS011;6753;52.520;13.450;2023-05-29T00:16:33;553.10;;;417.23;;
13368;SDS011;6753;52.520;13.450;2023-05-29T00:16:44;547.97;;;411.23;;
13368;SDS011;6753;52.520;13.450;2023-05-29T00:16:56;548.75;;;410.92;;
13368;SDS011;6753;52.520;13.450;2023-05-29T00:17:08;545.65;;;408.83;;
13368;SDS011;6753;52.520;13.450;2023-05-29T00:17:19;543.42;;;406.60;;
13368;SDS011;6753;52.520;13.450;2023-05-29T00:17:30;536.80;;;399.50;;
13368;SDS011;6753;52.520;13.450;2023-05-29T00:17:42;531.65;;;393.52;;
13368;SDS011;6753;52.520;13.450;2023-05-29T00:17:53;527.58;;;388.05;;
13368;SDS011;6753;52.520;13.450;2023-05-29T00:18:04;516.10;;;373.65;;
13368;SDS011;6753;52.520;13.450;2023-05-29T00:18:15;510.98;;;367.23;;
13368;SDS011;6753;52.520;13.450;2023-05-29T00:18:26;501.27;;;355.30;;
13368;SDS011;6753;52.520;13.450;2023-05-29T00:18:38;484.77;;;341.33;;
13368;SDS011;6753;52.520;13.450;2023-05-29T00:18:55;515.45;;;376.10;;
13368;SDS011;6753;52.520;13.450;2023-05-29T00:19:06;520.05;;;381.08;;
13368;SDS011;6753;52.520;13.450;2023-05-29T00:19:16;522.53;;;383.05;;
13368;SDS011;6753;52.520;13.450;2023-05-29T00:19:27;532.75;;;393.83;;
13368;SDS011;6753;52.520;13.450;2023-05-29T00:19:38;539.00;;;401.20;;
13368;SDS011;6753;52.520;13.450;2023-05-29T00:19:49;538.90;;;398.15;;
13368;SDS011;6753;52.520;13.450;2023-05-29T00:20:00;536.92;;;396.55;;
13368;SDS011;6753;52.520;13.450;2023-05-29T00:20:11;538.65;;;397.42;;
13368;SDS011;6753;52.520;13.450;2023-05-29T00:20:23;475.52;;;332.75;;
13368;SDS011;6753;52.520;13.450;2023-05-29T00:20:34;484.67;;;340.75;;
13368;SDS011;6753;52.520;13.450;2023-05-29T00:20:46;470.60;;;327.55;;
13368;SDS011;6753;52.520;13.450;2023-05-29T00:20:56;446.17;;;305.07;;
13368;SDS011;6753;52.520;13.450;2023-05-29T00:21:07;460.55;;;314.67;;
13368;SDS011;6753;52.520;13.450;2023-05-29T00:21:19;465.25;;;318.63;;
13368;SDS011;6753;52.520;13.450;2023-05-29T00:21:30;476.52;;;330.52;;
13368;SDS011;6753;52.520;13.450;2023-05-29T00:21:40;479.93;;;335.90;;
13368;SDS011;6753;52.520;13.450;2023-05-29T00:21:52;481.77;;;337.85;;
13368;SDS011;6753;52.520;13.450;2023-05-29T00:22:03;486.20;;;344.92;;
13368;SDS011;6753;52.520;13.450;2023-05-29T00:22:14;497.70;;;359.13;;
13368;SDS011;6753;52.520;13.450;2023-05-29T00:22:24;501.00;;;362.20;;
13368;SDS011;6753;52.520;13.450;2023-05-29T00:22:35;504.55;;;365.52;;
13368;SDS011;6753;52.520;13.450;2023-05-29T00:22:47;507.45;;;368.00;;
13368;SDS011;6753;52.520;13.450;2023-05-29T00:23:01;505.60;;;364.42;;
13368;SDS011;6753;52.520;13.450;2023-05-29T00:23:12;502.17;;;360.90;;
13368;SDS011;6753;52.520;13.450;2023-05-29T00:23:24;495.67;;;353.88;;
13368;SDS011;6753;52.520;13.450;2023-05-29T00:23:34;487.60;;;346.17;;
13368;SDS011;6753;52.520;13.450;2023-05-29T00:23:46;487.58;;;344.33;;
13368;SDS011;6753;52.520;13.450;2023-05-29T00:23:57;493.63;;;350.77;;
13368;SDS011;6753;52.520;13.450;2023-05-29T00:24:08;485.58;;;343.40;;
13368;SDS011;6753;52.520;13.450;2023-05-29T00:24:19;478.13;;;333.47;;
13368;SDS011;6753;52.520;13.450;2023-05-29T00:24:30;460.13;;;317.95;;
13368;SDS011;6753;52.520;13.450;2023-05-29T00:24:42;457.98;;;317.23;;
13368;SDS011;6753;52.520;13.450;2023-05-29T00:24:53;455.95;;;311.80;;
13368;SDS011;6753;52.520;13.450;2023-05-29T00:25:04;456.93;;;311.03;;
13368;SDS011;6753;52.520;13.450;2023-05-29T00:25:15;451.73;;;306.33;;
13368;SDS011;6753;52.520;13.450;2023-05-29T00:25:26;452.52;;;306.70;;
13368;SDS011;6753;52.520;13.450;2023-05-29T00:25:37;451.33;;;304.73;;
13368;SDS011;6753;52.520;13.450;2023-05-29T00:25:50;440.67;;;293.05;;
13368;SDS011;6753;52.520;13.450;2023-05-29T00:26:00;436.23;;;289.58;;
13368;SDS011;6753;52.520;13.450;2023-05-29T00:26:12;411.30;;;274.60;;
13368;SDS011;6753;52.520;13.450;2023-05-29T00:26:26;396.15;;;260.85;;
13368;SDS011;6753;52.520;13.450;2023-05-29T00:26:37;407.00;;;268.13;;
13368;SDS011;6753;52.520;13.450;2023-05-29T00:26:48;412.30;;;269.17;;
13368;SDS011;6753;52.520;13.450;2023-05-29T00:26:58;409.00;;;265.92;;
13368;SDS011;6753;52.520;13.450;2023-05-29T00:27:09;416.20;;;269.17;;
13368;SDS011;6753;52.520;13.450;2023-05-29T00:27:20;428.90;;;280.40;;
13368;SDS011;6753;52.520;13.450;2023-05-29T00:27:31;427.52;;;277.40;;
13368;SDS011;6753;52.520;13.450;2023-05-29T00:27:42;426.33;;;278.05;;
13368;SDS011;6753;52.520;13.450;2023-05-29T00:27:54;432.73;;;283.70;;
13368;SDS011;6753;52.520;13.450;2023-05-29T00:28:06;434.03;;;285.03;;
13368;SDS011;6753;52.520;13.450;2023-05-29T00:28:17;430.55;;;281.75;;
13368;SDS011;6753;52.520;13.450;2023-05-29T00:28:27;432.90;;;284.60;;
13368;SDS011;6753;52.520;13.450;2023-05-29T00:28:38;432.57;;;285.23;;
13368;SDS011;6753;52.520;13.450;2023-05-29T00:28:49;436.30;;;285.77;;
13368;SDS011;6753;52.520;13.450;2023-05-29T00:29:00;434.35;;;285.45;;
13368;SDS011;6753;52.520;13.450;2023-05-29T00:29:10;423.40;;;276.00;;
13368;SDS011;6753;52.520;13.450;2023-05-29T00:29:23;426.52;;;277.20;;
13368;SDS011;6753;52.520;13.450;2023-05-29T00:29:34;424.63;;;275.67;;
13368;SDS011;6753;52.520;13.450;2023-05-29T00:29:46;415.48;;;269.33;;
13368;SDS011;6753;52.520;13.450;2023-05-29T00:29:56;406.57;;;260.53;;
13368;SDS011;6753;52.520;13.450;2023-05-29T00:30:07;404.33;;;258.88;;
13368;SDS011;6753;52.520;13.450;2023-05-29T00:30:18;383.60;;;245.30;;
13368;SDS011;6753;52.520;13.450;2023-05-29T00:30:29;369.45;;;232.95;;
13368;SDS011;6753;52.520;13.450;2023-05-29T00:30:41;361.15;;;226.00;;
13368;SDS011;6753;52.520;13.450;2023-05-29T00:30:52;364.33;;;228.75;;
13368;SDS011;6753;52.520;13.450;2023-05-29T00:31:02;365.80;;;231.70;;
13368;SDS011;6753;52.520;13.450;2023-05-29T00:31:15;368.05;;;234.00;;
13368;SDS011;6753;52.520;13.450;2023-05-29T00:31:25;369.08;;;235.35;;
13368;SDS011;6753;52.520;13.450;2023-05-29T00:31:38;368.73;;;236.48;;
13368;SDS011;6753;52.520;13.450;2023-05-29T00:31:48;350.10;;;221.73;;
13368;SDS011;6753;52.520;13.450;2023-05-29T00:31:59;335.00;;;209.82;;
13368;SDS011;6753;52.520;13.450;2023-05-29T00:32:11;327.00;;;202.10;;
13368;SDS011;6753;52.520;13.450;2023-05-29T00:32:22;323.23;;;199.57;;
13368;SDS011;6753;52.520;13.450;2023-05-29T00:32:33;320.08;;;196.70;;
13368;SDS011;6753;52.520;13.450;2023-05-29T00:32:44;322.80;;;198.67;;
13368;SDS011;6753;52.520;13.450;2023-05-29T00:32:55;325.27;;;200.77;;
13368;SDS011;6753;52.520;13.450;2023-05-29T00:33:06;327.67;;;201.45;;
13368;SDS011;6753;52.520;13.450;2023-05-29T00:33:18;339.90;;;209.85;;
13368;SDS011;6753;52.520;13.450;2023-05-29T00:33:29;344.63;;;212.23;;
13368;SDS011;6753;52.520;13.450;2023-05-29T00:33:40;345.83;;;212.63;;
13368;SDS011;6753;52.520;13.450;2023-05-29T00:33:52;337.60;;;208.70;;
13368;SDS011;6753;52.520;13.450;2023-05-29T00:34:02;333.33;;;206.68;;
13368;SDS011;6753;52.520;13.450;2023-05-29T00:34:13;327.05;;;201.88;;
13368;SDS011;6753;52.520;13.450;2023-05-29T00:34:24;316.80;;;196.23;;
13368;SDS011;6753;52.520;13.450;2023-05-29T00:34:35;316.38;;;196.65;;
13368;SDS011;6753;52.520;13.450;2023-05-29T00:34:45;328.50;;;204.25;;
13368;SDS011;6753;52.520;13.450;2023-05-29T00:34:56;342.50;;;215.05;;
13368;SDS011;6753;52.520;13.450;2023-05-29T00:35:08;352.58;;;220.45;;
13368;SDS011;6753;52.520;13.450;2023-05-29T00:35:19;362.50;;;226.07;;
13368;SDS011;6753;52.520;13.450;2023-05-29T00:35:30;361.23;;;223.38;;
13368;SDS011;6753;52.520;13.450;2023-05-29T00:35:41;356.47;;;220.87;;
13368;SDS011;6753;52.520;13.450;2023-05-29T00:35:52;348.13;;;215.50;;
13368;SDS011;6753;52.520;13.450;2023-05-29T00:36:03;337.15;;;206.98;;
13368;SDS011;6753;52.520;13.450;2023-05-29T00:36:15;327.83;;;203.57;;
13368;SDS011;6753;52.520;13.450;2023-05-29T00:36:26;322.73;;;199.65;;
13368;SDS011;6753;52.520;13.450;2023-05-29T00:36:38;325.63;;;201.90;;
13368;SDS011;6753;52.520;13.450;2023-05-29T00:36:49;327.98;;;203.27;;
13368;SDS011;6753;52.520;13.450;2023-05-29T00:37:00;334.73;;;207.40;;
13368;SDS011;6753;52.520;13.450;2023-05-29T00:37:11;345.05;;;207.95;;
13368;SDS011;6753;52.520;13.450;2023-05-29T00:37:22;343.95;;;205.20;;
13368;SDS011;6753;52.520;13.450;2023-05-29T00:37:33;346.58;;;203.07;;
13368;SDS011;6753;52.520;13.450;2023-05-29T00:37:43;337.17;;;196.50;;
13368;SDS011;6753;52.520;13.450;2023-05-29T00:37:54;332.27;;;192.50;;
13368;SDS011;6753;52.520;13.450;2023-05-29T00:38:06;328.73;;;194.18;;
13368;SDS011;6753;52.520;13.450;2023-05-29T00:38:16;338.00;;;201.90;;
13368;SDS011;6753;52.520;13.450;2023-05-29T00:38:27;336.83;;;205.02;;
13368;SDS011;6753;52.520;13.450;2023-05-29T00:38:38;345.27;;;213.02;;
13368;SDS011;6753;52.520;13.450;2023-05-29T00:38:49;361.27;;;223.13;;
13368;SDS011;6753;52.520;13.450;2023-05-29T00:38:59;366.43;;;226.30;;
13368;SDS011;6753;52.520;13.450;2023-05-29T00:39:10;370.73;;;229.27;;
13368;SDS011;6753;52.520;13.450;2023-05-29T00:39:21;366.52;;;228.38;;
13368;SDS011;6753;52.520;13.450;2023-05-29T00:39:32;366.53;;;227.43;;
13368;SDS011;6753;52.520;13.450;2023-05-29T00:39:43;358.80;;;223.38;;
13368;SDS011;6753;52.520;13.450;2023-05-29T00:39:55;349.63;;;216.07;;
13368;SDS011;6753;52.520;13.450;2023-05-29T00:40:06;343.70;;;212.23;;
13368;SDS011;6753;52.520;13.450;2023-05-29T00:40:17;339.48;;;206.48;;
13368;SDS011;6753;52.520;13.450;2023-05-29T00:40:28;343.63;;;209.02;;
13368;SDS011;6753;52.520;13.450;2023-05-29T00:40:39;351.33;;;210.53;;
13368;SDS011;6753;52.520;13.450;2023-05-29T00:40:51;358.08;;;216.18;;
13368;SDS011;6753;52.520;13.450;2023-05-29T00:41:02;379.23;;;228.13;;
13368;SDS011;6753;52.520;13.450;2023-05-29T00:41:13;398.75;;;243.15;;
13368;SDS011;6753;52.520;13.450;2023-05-29T00:41:24;415.30;;;254.95;;
13368;SDS011;6753;52.520;13.450;2023-05-29T00:41:35;413.90;;;256.77;;
13368;SDS011;6753;52.520;13.450;2023-05-29T00:41:46;413.05;;;256.88;;
13368;SDS011;6753;52.520;13.450;2023-05-29T00:42:00;391.85;;;245.38;;
13368;SDS011;6753;52.520;13.450;2023-05-29T00:42:11;371.95;;;231.73;;
13368;SDS011;6753;52.520;13.450;2023-05-29T00:42:23;367.92;;;229.73;;
13368;SDS011;6753;52.520;13.450;2023-05-29T00:42:34;377.42;;;237.32;;
13368;SDS011;6753;52.520;13.450;2023-05-29T00:42:44;383.33;;;242.60;;
13368;SDS011;6753;52.520;13.450;2023-05-29T00:42:55;391.07;;;248.53;;
13368;SDS011;6753;52.520;13.450;2023-05-29T00:43:06;398.67;;;252.48;;
13368;SDS011;6753;52.520;13.450;2023-05-29T00:43:16;407.02;;;258.70;;
13368;SDS011;6753;52.520;13.450;2023-05-29T00:43:27;393.95;;;248.50;;
13368;SDS011;6753;52.520;13.450;2023-05-29T00:43:38;394.90;;;247.93;;
13368;SDS011;6753;52.520;13.450;2023-05-29T00:43:49;399.50;;;250.30;;
13368;SDS011;6753;52.520;13.450;2023-05-29T00:44:00;418.17;;;263.17;;
13368;SDS011;6753;52.520;13.450;2023-05-29T00:44:11;430.63;;;271.67;;
13368;SDS011;6753;52.520;13.450;2023-05-29T00:44:22;455.37;;;290.23;;
13368;SDS011;6753;52.520;13.450;2023-05-29T00:44:33;493.42;;;320.75;;
13368;SDS011;6753;52.520;13.450;2023-05-29T00:44:44;451.70;;;288.73;;
13368;SDS011;6753;52.520;13.450;2023-05-29T00:44:56;427.50;;;272.92;;
13368;SDS011;6753;52.520;13.450;2023-05-29T00:45:07;417.85;;;264.85;;
13368;SDS011;6753;52.520;13.450;2023-05-29T00:45:18;412.23;;;260.10;;
13368;SDS011;6753;52.520;13.450;2023-05-29T00:45:29;398.33;;;249.40;;
13368;SDS011;6753;52.520;13.450;2023-05-29T00:45:41;401.27;;;249.55;;
13368;SDS011;6753;52.520;13.450;2023-05-29T00:45:52;406.67;;;251.75;;
13368;SDS011;6753;52.520;13.450;2023-05-29T00:46:03;410.52;;;252.65;;
13368;SDS011;6753;52.520;13.450;2023-05-29T00:46:15;408.27;;;251.90;;
13368;SDS011;6753;52.520;13.450;2023-05-29T00:46:26;403.77;;;247.45;;
13368;SDS011;6753;52.520;13.450;2023-05-29T00:46:38;403.98;;;248.40;;
13368;SDS011;6753;52.520;13.450;2023-05-29T00:46:51;406.55;;;251.48;;
13368;SDS011;6753;52.520;13.450;2023-05-29T00:47:02;414.55;;;257.33;;
13368;SDS011;6753;52.520;13.450;2023-05-29T00:47:15;424.13;;;263.75;;
13368;SDS011;6753;52.520;13.450;2023-05-29T00:47:26;427.17;;;268.13;;
13368;SDS011;6753;52.520;13.450;2023-05-29T00:47:37;431.13;;;270.80;;
13368;SDS011;6753;52.520;13.450;2023-05-29T00:47:47;436.10;;;274.75;;
13368;SDS011;6753;52.520;13.450;2023-05-29T00:47:58;439.63;;;276.73;;
13368;SDS011;6753;52.520;13.450;2023-05-29T00:48:09;443.30;;;280.40;;
13368;SDS011;6753;52.520;13.450;2023-05-29T00:48:20;450.60;;;285.00;;
13368;SDS011;6753;52.520;13.450;2023-05-29T00:48:31;456.13;;;290.13;;
13368;SDS011;6753;52.520;13.450;2023-05-29T00:48:42;455.05;;;288.98;;
13368;SDS011;6753;52.520;13.450;2023-05-29T00:48:53;452.83;;;288.65;;
13368;SDS011;6753;52.520;13.450;2023-05-29T00:49:04;450.65;;;287.45;;
13368;SDS011;6753;52.520;13.450;2023-05-29T00:49:16;446.77;;;283.50;;
13368;SDS011;6753;52.520;13.450;2023-05-29T00:49:27;444.85;;;280.55;;
13368;SDS011;6753;52.520;13.450;2023-05-29T00:49:38;441.30;;;277.80;;
13368;SDS011;6753;52.520;13.450;2023-05-29T00:49:49;442.60;;;277.98;;
13368;SDS011;6753;52.520;13.450;2023-05-29T00:50:02;441.73;;;276.40;;
13368;SDS011;6753;52.520;13.450;2023-05-29T00:50:14;439.73;;;276.10;;
13368;SDS011;6753;52.520;13.450;2023-05-29T00:50:25;440.90;;;277.38;;
13368;SDS011;6753;52.520;13.450;2023-05-29T00:50:37;442.80;;;278.30;;
13368;SDS011;6753;52.520;13.450;2023-05-29T00:50:48;443.23;;;279.67;;
13368;SDS011;6753;52.520;13.450;2023-05-29T00:50:58;446.10;;;279.80;;
13368;SDS011;6753;52.520;13.450;2023-05-29T00:51:10;448.60;;;280.55;;
13368;SDS011;6753;52.520;13.450;2023-05-29T00:51:22;448.83;;;280.10;;
13368;SDS011;6753;52.520;13.450;2023-05-29T00:51:33;449.75;;;280.45;;
13368;SDS011;6753;52.520;13.450;2023-05-29T00:51:43;448.30;;;279.38;;
13368;SDS011;6753;52.520;13.450;2023-05-29T00:51:56;447.88;;;280.40;;
13368;SDS011;6753;52.520;13.450;2023-05-29T00:52:07;449.77;;;282.95;;
13368;SDS011;6753;52.520;13.450;2023-05-29T00:52:22;453.75;;;285.98;;
13368;SDS011;6753;52.520;13.450;2023-05-29T00:52:33;448.65;;;283.63;;
13368;SDS011;6753;52.520;13.450;2023-05-29T00:52:45;449.30;;;283.70;;
13368;SDS011;6753;52.520;13.450;2023-05-29T00:52:56;450.63;;;284.20;;
13368;SDS011;6753;52.520;13.450;2023-05-29T00:53:07;449.58;;;284.40;;
13368;SDS011;6753;52.520;13.450;2023-05-29T00:53:19;447.70;;;282.13;;
13368;SDS011;6753;52.520;13.450;2023-05-29T00:53:31;450.75;;;280.35;;
13368;SDS011;6753;52.520;13.450;2023-05-29T00:53:42;446.88;;;276.50;;
13368;SDS011;6753;52.520;13.450;2023-05-29T00:53:54;442.40;;;274.25;;
13368;SDS011;6753;52.520;13.450;2023-05-29T00:54:07;437.33;;;270.17;;
13368;SDS011;6753;52.520;13.450;2023-05-29T00:54:22;436.58;;;269.13;;
13368;SDS011;6753;52.520;13.450;2023-05-29T00:54:38;432.30;;;270.35;;
13368;SDS011;6753;52.520;13.450;2023-05-29T00:54:49;433.92;;;271.40;;
13368;SDS011;6753;52.520;13.450;2023-05-29T00:55:01;442.48;;;275.42;;
13368;SDS011;6753;52.520;13.450;2023-05-29T00:55:13;447.30;;;279.77;;
13368;SDS011;6753;52.520;13.450;2023-05-29T00:55:25;449.75;;;282.52;;
13368;SDS011;6753;52.520;13.450;2023-05-29T00:55:35;450.27;;;282.02;;
13368;SDS011;6753;52.520;13.450;2023-05-29T00:55:47;453.55;;;284.52;;
13368;SDS011;6753;52.520;13.450;2023-05-29T00:55:58;446.80;;;279.02;;
13368;SDS011;6753;52.520;13.450;2023-05-29T00:56:10;440.92;;;274.65;;
13368;SDS011;6753;52.520;13.450;2023-05-29T00:56:22;439.70;;;273.73;;
13368;SDS011;6753;52.520;13.450;2023-05-29T00:56:34;439.88;;;274.40;;
13368;SDS011;6753;52.520;13.450;2023-05-29T00:56:45;437.88;;;272.55;;
13368;SDS011;6753;52.520;13.450;2023-05-29T00:56:56;437.63;;;272.73;;
13368;SDS011;6753;52.520;13.450;2023-05-29T00:57:08;437.50;;;273.35;;
13368;SDS011;6753;52.520;13.450;2023-05-29T00:57:19;438.10;;;272.35;;
13368;SDS011;6753;52.520;13.450;2023-05-29T00:57:30;438.02;;;271.23;;
13368;SDS011;6753;52.520;13.450;2023-05-29T00:57:43;440.40;;;273.55;;
13368;SDS011;6753;52.520;13.450;2023-05-29T00:57:56;444.98;;;275.90;;
13368;SDS011;6753;52.520;13.450;2023-05-29T00:58:07;445.38;;;275.55;;
13368;SDS011;6753;52.520;13.450;2023-05-29T00:58:18;442.30;;;274.85;;
13368;SDS011;6753;52.520;13.450;2023-05-29T00:58:30;443.52;;;276.85;;
13368;SDS011;6753;52.520;13.450;2023-05-29T00:58:42;444.60;;;275.70;;
13368;SDS011;6753;52.520;13.450;2023-05-29T00:58:53;443.92;;;276.17;;
13368;SDS011;6753;52.520;13.450;2023-05-29T00:59:04;450.95;;;283.92;;
13368;SDS011;6753;52.520;13.450;2023-05-29T00:59:15;466.48;;;299.13;;
13368;SDS011;6753;52.520;13.450;2023-05-29T00:59:29;479.35;;;310.63;;
13368;SDS011;6753;52.520;13.450;2023-05-29T00:59:42;481.40;;;314.17;;
13368;SDS011;6753;52.520;13.450;2023-05-29T00:59:55;478.75;;;312.38;;
13368;SDS011;6753;52.520;13.450;2023-05-29T01:00:07;468.30;;;302.75;;
13368;SDS011;6753;52.520;13.450;2023-05-29T01:00:19;460.58;;;295.52;;
13368;SDS011;6753;52.520;13.450;2023-05-29T01:00:30;448.58;;;284.92;;
13368;SDS011;6753;52.520;13.450;2023-05-29T01:00:43;445.02;;;282.15;;
13368;SDS011;6753;52.520;13.450;2023-05-29T01:00:54;446.13;;;282.77;;
13368;SDS011;6753;52.520;13.450;2023-05-29T01:01:06;445.23;;;280.70;;
13368;SDS011;6753;52.520;13.450;2023-05-29T01:01:18;442.98;;;277.52;;
13368;SDS011;6753;52.520;13.450;2023-05-29T01:01:29;440.95;;;276.40;;
13368;SDS011;6753;52.520;13.450;2023-05-29T01:01:42;439.83;;;273.23;;
13368;SDS011;6753;52.520;13.450;2023-05-29T01:01:54;438.20;;;271.98;;
13368;SDS011;6753;52.520;13.450;2023-05-29T01:02:06;437.42;;;271.52;;
13368;SDS011;6753;52.520;13.450;2023-05-29T01:02:17;435.25;;;270.73;;
13368;SDS011;6753;52.520;13.450;2023-05-29T01:02:29;437.10;;;270.33;;
13368;SDS011;6753;52.520;13.450;2023-05-29T01:02:40;438.20;;;273.60;;
13368;SDS011;6753;52.520;13.450;2023-05-29T01:02:54;445.58;;;280.52;;
13368;SDS011;6753;52.520;13.450;2023-05-29T01:03:06;448.77;;;283.33;;
13368;SDS011;6753;52.520;13.450;2023-05-29T01:03:17;450.90;;;284.73;;
13368;SDS011;6753;52.520;13.450;2023-05-29T01:03:29;453.50;;;288.17;;
13368;SDS011;6753;52.520;13.450;2023-05-29T01:03:42;455.23;;;289.73;;
13368;SDS011;6753;52.520;13.450;2023-05-29T01:03:55;458.20;;;292.40;;
13368;SDS011;6753;52.520;13.450;2023-05-29T01:04:07;460.20;;;294.17;;
13368;SDS011;6753;52.520;13.450;2023-05-29T01:04:22;464.75;;;296.73;;